Terminal Aerodrome Forecast
Issued by NWS Omaha/Valley, NE

Home | Current Version | Previous Version | Graphics & Text | Print | Product List | Glossary On
Versions: 1 2 3 4 5 6 7 8 9 10 11 12 13 14 15 16 17 18 19 20 21 22 23 24 25 26 27 28 29 30 31 32 33 34 35 36 37 38 39 40 41 42
717
FTUS43 KOAX 121720
TAFOFK
TAF
KOFK 121720Z 1218/1318 36014KT P6SM SCT020 BKN070
      TEMPO 1218/1220 BKN020
     FM122000 36012KT P6SM BKN025
     FM130000 02007KT P6SM OVC050
     FM131200 14008KT P6SM OVC050=

USA.gov is the U.S. government's official web portal to all federal, state and local government web resources and services.